sensor_id;sensor_type;location;lat;lon;timestamp;P1;durP1;ratioP1;P2;durP2;ratioP2
25667;SDS011;18003;-33.830;151.202;2023-05-07T00:00:51;3.72;;;2.20;;
25667;SDS011;18003;-33.830;151.202;2023-05-07T00:03:21;2.03;;;1.83;;
25667;SDS011;18003;-33.830;151.202;2023-05-07T00:05:52;13.90;;;2.50;;
25667;SDS011;18003;-33.830;151.202;2023-05-07T00:08:23;5.15;;;1.80;;
25667;SDS011;18003;-33.830;151.202;2023-05-07T00:13:56;8.00;;;3.10;;
25667;SDS011;18003;-33.830;151.202;2023-05-07T00:16:31;6.67;;;2.60;;
25667;SDS011;18003;-33.830;151.202;2023-05-07T00:18:58;2.98;;;1.98;;
25667;SDS011;18003;-33.830;151.202;2023-05-07T00:24:03;2.90;;;2.00;;
25667;SDS011;18003;-33.830;151.202;2023-05-07T00:26:41;2.02;;;1.70;;
25667;SDS011;18003;-33.830;151.202;2023-05-07T00:29:08;1.80;;;1.70;;
25667;SDS011;18003;-33.830;151.202;2023-05-07T00:31:38;2.27;;;1.80;;
25667;SDS011;18003;-33.830;151.202;2023-05-07T00:34:08;2.35;;;2.00;;
25667;SDS011;18003;-33.830;151.202;2023-05-07T00:39:18;2.42;;;2.20;;
25667;SDS011;18003;-33.830;151.202;2023-05-07T00:41:57;2.22;;;2.02;;
25667;SDS011;18003;-33.830;151.202;2023-05-07T00:44:25;2.35;;;1.85;;
25667;SDS011;18003;-33.830;151.202;2023-05-07T00:46:56;5.40;;;2.55;;
25667;SDS011;18003;-33.830;151.202;2023-05-07T00:51:57;2.85;;;2.52;;
25667;SDS011;18003;-33.830;151.202;2023-05-07T00:54:27;2.60;;;2.40;;
25667;SDS011;18003;-33.830;151.202;2023-05-07T00:59:49;2.47;;;2.17;;
25667;SDS011;18003;-33.830;151.202;2023-05-07T01:02:22;3.67;;;2.40;;
25667;SDS011;18003;-33.830;151.202;2023-05-07T01:07:21;3.45;;;2.20;;
25667;SDS011;18003;-33.830;151.202;2023-05-07T01:09:52;3.33;;;2.30;;
25667;SDS011;18003;-33.830;151.202;2023-05-07T01:12:22;2.58;;;2.00;;
25667;SDS011;18003;-33.830;151.202;2023-05-07T01:14:54;2.37;;;1.90;;
25667;SDS011;18003;-33.830;151.202;2023-05-07T01:17:30;5.15;;;2.22;;
25667;SDS011;18003;-33.830;151.202;2023-05-07T01:19:57;4.67;;;2.47;;
25667;SDS011;18003;-33.830;151.202;2023-05-07T01:22:45;4.80;;;2.85;;
25667;SDS011;18003;-33.830;151.202;2023-05-07T01:25:08;3.50;;;3.05;;
25667;SDS011;18003;-33.830;151.202;2023-05-07T01:27:36;3.45;;;2.62;;
25667;SDS011;18003;-33.830;151.202;2023-05-07T01:30:06;6.35;;;2.52;;
25667;SDS011;18003;-33.830;151.202;2023-05-07T01:32:43;4.40;;;2.58;;
25667;SDS011;18003;-33.830;151.202;2023-05-07T01:35:21;9.88;;;2.50;;
25667;SDS011;18003;-33.830;151.202;2023-05-07T01:37:52;3.85;;;2.50;;
25667;SDS011;18003;-33.830;151.202;2023-05-07T01:40:23;4.75;;;2.40;;
25667;SDS011;18003;-33.830;151.202;2023-05-07T01:42:54;4.15;;;2.35;;
25667;SDS011;18003;-33.830;151.202;2023-05-07T01:45:24;3.50;;;2.27;;
25667;SDS011;18003;-33.830;151.202;2023-05-07T01:47:55;2.47;;;2.22;;
25667;SDS011;18003;-33.830;151.202;2023-05-07T01:50:26;2.30;;;2.10;;
25667;SDS011;18003;-33.830;151.202;2023-05-07T01:52:57;5.45;;;2.83;;
25667;SDS011;18003;-33.830;151.202;2023-05-07T01:55:29;2.67;;;2.00;;
25667;SDS011;18003;-33.830;151.202;2023-05-07T01:57:59;3.05;;;2.08;;
25667;SDS011;18003;-33.830;151.202;2023-05-07T02:00:29;2.05;;;1.80;;
25667;SDS011;18003;-33.830;151.202;2023-05-07T02:02:59;2.55;;;1.85;;
25667;SDS011;18003;-33.830;151.202;2023-05-07T02:05:35;2.20;;;2.00;;
25667;SDS011;18003;-33.830;151.202;2023-05-07T02:14:09;2.20;;;2.10;;
25667;SDS011;18003;-33.830;151.202;2023-05-07T02:16:45;2.60;;;2.40;;
25667;SDS011;18003;-33.830;151.202;2023-05-07T02:24:57;2.10;;;1.70;;
25667;SDS011;18003;-33.830;151.202;2023-05-07T02:33:09;2.10;;;1.90;;
25667;SDS011;18003;-33.830;151.202;2023-05-07T02:35:26;2.00;;;1.90;;
25667;SDS011;18003;-33.830;151.202;2023-05-07T02:37:57;1.42;;;1.32;;
25667;SDS011;18003;-33.830;151.202;2023-05-07T02:40:39;1.40;;;1.30;;
25667;SDS011;18003;-33.830;151.202;2023-05-07T02:43:12;2.60;;;1.67;;
25667;SDS011;18003;-33.830;151.202;2023-05-07T02:45:46;1.70;;;1.60;;
25667;SDS011;18003;-33.830;151.202;2023-05-07T02:48:20;1.92;;;1.82;;
25667;SDS011;18003;-33.830;151.202;2023-05-07T02:50:46;1.72;;;1.62;;
25667;SDS011;18003;-33.830;151.202;2023-05-07T02:53:18;1.80;;;1.70;;
25667;SDS011;18003;-33.830;151.202;2023-05-07T02:55:48;1.70;;;1.60;;
25667;SDS011;18003;-33.830;151.202;2023-05-07T02:58:18;1.70;;;1.60;;
25667;SDS011;18003;-33.830;151.202;2023-05-07T03:00:48;2.20;;;1.72;;
25667;SDS011;18003;-33.830;151.202;2023-05-07T03:03:18;1.98;;;1.80;;
25667;SDS011;18003;-33.830;151.202;2023-05-07T03:05:49;4.95;;;1.90;;
25667;SDS011;18003;-33.830;151.202;2023-05-07T03:08:19;4.28;;;2.00;;
25667;SDS011;18003;-33.830;151.202;2023-05-07T03:10:49;3.40;;;1.60;;
25667;SDS011;18003;-33.830;151.202;2023-05-07T03:13:19;3.65;;;2.00;;
25667;SDS011;18003;-33.830;151.202;2023-05-07T03:15:49;2.77;;;1.67;;
25667;SDS011;18003;-33.830;151.202;2023-05-07T03:18:19;3.92;;;1.70;;
25667;SDS011;18003;-33.830;151.202;2023-05-07T03:20:50;3.50;;;1.42;;
25667;SDS011;18003;-33.830;151.202;2023-05-07T03:23:20;2.72;;;1.70;;
25667;SDS011;18003;-33.830;151.202;2023-05-07T03:25:50;1.52;;;1.12;;
25667;SDS011;18003;-33.830;151.202;2023-05-07T03:28:20;2.25;;;1.17;;
25667;SDS011;18003;-33.830;151.202;2023-05-07T03:30:50;1.45;;;1.00;;
25667;SDS011;18003;-33.830;151.202;2023-05-07T03:33:20;1.50;;;0.85;;
25667;SDS011;18003;-33.830;151.202;2023-05-07T03:35:50;1.50;;;1.00;;
25667;SDS011;18003;-33.830;151.202;2023-05-07T03:38:20;1.45;;;1.05;;
25667;SDS011;18003;-33.830;151.202;2023-05-07T03:40:50;6.78;;;1.80;;
25667;SDS011;18003;-33.830;151.202;2023-05-07T03:43:20;7.42;;;1.65;;
25667;SDS011;18003;-33.830;151.202;2023-05-07T03:45:50;7.55;;;2.10;;
25667;SDS011;18003;-33.830;151.202;2023-05-07T03:48:20;3.70;;;1.80;;
25667;SDS011;18003;-33.830;151.202;2023-05-07T03:50:50;2.27;;;1.47;;
25667;SDS011;18003;-33.830;151.202;2023-05-07T03:53:20;1.90;;;1.67;;
25667;SDS011;18003;-33.830;151.202;2023-05-07T03:55:51;2.12;;;1.60;;
25667;SDS011;18003;-33.830;151.202;2023-05-07T03:58:21;1.85;;;1.35;;
25667;SDS011;18003;-33.830;151.202;2023-05-07T04:00:51;2.67;;;1.40;;
25667;SDS011;18003;-33.830;151.202;2023-05-07T04:03:21;1.80;;;1.30;;
25667;SDS011;18003;-33.830;151.202;2023-05-07T04:05:51;2.40;;;1.40;;
25667;SDS011;18003;-33.830;151.202;2023-05-07T04:08:21;1.77;;;1.57;;
25667;SDS011;18003;-33.830;151.202;2023-05-07T04:11:00;12.78;;;2.50;;
25667;SDS011;18003;-33.830;151.202;2023-05-07T04:13:31;4.72;;;1.95;;
25667;SDS011;18003;-33.830;151.202;2023-05-07T04:16:02;1.87;;;1.77;;
25667;SDS011;18003;-33.830;151.202;2023-05-07T04:18:32;2.37;;;1.90;;
25667;SDS011;18003;-33.830;151.202;2023-05-07T04:21:02;3.10;;;1.80;;
25667;SDS011;18003;-33.830;151.202;2023-05-07T04:23:33;1.75;;;1.62;;
25667;SDS011;18003;-33.830;151.202;2023-05-07T04:26:03;1.95;;;1.80;;
25667;SDS011;18003;-33.830;151.202;2023-05-07T04:28:33;1.95;;;1.85;;
25667;SDS011;18003;-33.830;151.202;2023-05-07T04:31:04;1.62;;;1.52;;
25667;SDS011;18003;-33.830;151.202;2023-05-07T04:33:34;1.77;;;1.67;;
25667;SDS011;18003;-33.830;151.202;2023-05-07T04:36:03;1.60;;;1.50;;
25667;SDS011;18003;-33.830;151.202;2023-05-07T04:38:34;1.90;;;1.80;;
25667;SDS011;18003;-33.830;151.202;2023-05-07T04:41:04;1.70;;;1.60;;
25667;SDS011;18003;-33.830;151.202;2023-05-07T04:43:34;2.37;;;1.60;;
25667;SDS011;18003;-33.830;151.202;2023-05-07T04:46:04;1.90;;;1.00;;
25667;SDS011;18003;-33.830;151.202;2023-05-07T04:48:33;1.45;;;1.20;;
25667;SDS011;18003;-33.830;151.202;2023-05-07T04:51:03;1.22;;;1.12;;
25667;SDS011;18003;-33.830;151.202;2023-05-07T04:53:33;1.75;;;1.10;;
25667;SDS011;18003;-33.830;151.202;2023-05-07T04:56:03;1.47;;;1.10;;
25667;SDS011;18003;-33.830;151.202;2023-05-07T04:58:33;1.67;;;0.90;;
25667;SDS011;18003;-33.830;151.202;2023-05-07T05:01:03;1.22;;;1.12;;
25667;SDS011;18003;-33.830;151.202;2023-05-07T05:03:33;2.42;;;1.20;;
25667;SDS011;18003;-33.830;151.202;2023-05-07T05:06:04;1.27;;;1.10;;
25667;SDS011;18003;-33.830;151.202;2023-05-07T05:08:34;1.07;;;1.00;;
25667;SDS011;18003;-33.830;151.202;2023-05-07T05:11:05;0.90;;;0.90;;
25667;SDS011;18003;-33.830;151.202;2023-05-07T05:13:35;2.87;;;1.40;;
25667;SDS011;18003;-33.830;151.202;2023-05-07T05:16:05;1.20;;;1.10;;
25667;SDS011;18003;-33.830;151.202;2023-05-07T05:18:35;2.75;;;1.07;;
25667;SDS011;18003;-33.830;151.202;2023-05-07T05:21:05;2.00;;;1.05;;
25667;SDS011;18003;-33.830;151.202;2023-05-07T05:23:35;1.42;;;1.20;;
25667;SDS011;18003;-33.830;151.202;2023-05-07T05:26:05;1.55;;;1.17;;
25667;SDS011;18003;-33.830;151.202;2023-05-07T05:28:35;1.20;;;1.10;;
25667;SDS011;18003;-33.830;151.202;2023-05-07T05:31:05;1.15;;;1.05;;
25667;SDS011;18003;-33.830;151.202;2023-05-07T05:33:35;3.10;;;1.27;;
25667;SDS011;18003;-33.830;151.202;2023-05-07T05:36:05;1.50;;;1.40;;
25667;SDS011;18003;-33.830;151.202;2023-05-07T05:38:36;1.22;;;1.10;;
25667;SDS011;18003;-33.830;151.202;2023-05-07T05:41:06;4.00;;;1.40;;
25667;SDS011;18003;-33.830;151.202;2023-05-07T05:43:36;2.22;;;1.32;;
25667;SDS011;18003;-33.830;151.202;2023-05-07T05:46:06;1.55;;;1.47;;
25667;SDS011;18003;-33.830;151.202;2023-05-07T05:48:37;2.20;;;1.40;;
25667;SDS011;18003;-33.830;151.202;2023-05-07T05:51:07;1.77;;;1.67;;
25667;SDS011;18003;-33.830;151.202;2023-05-07T05:53:37;1.45;;;1.40;;
25667;SDS011;18003;-33.830;151.202;2023-05-07T05:56:07;1.60;;;1.55;;
25667;SDS011;18003;-33.830;151.202;2023-05-07T05:58:37;1.47;;;1.37;;
25667;SDS011;18003;-33.830;151.202;2023-05-07T06:01:07;1.50;;;1.40;;
25667;SDS011;18003;-33.830;151.202;2023-05-07T06:03:38;1.98;;;1.45;;
25667;SDS011;18003;-33.830;151.202;2023-05-07T06:06:09;1.37;;;1.27;;
25667;SDS011;18003;-33.830;151.202;2023-05-07T06:08:39;1.30;;;1.20;;
25667;SDS011;18003;-33.830;151.202;2023-05-07T06:11:09;1.57;;;1.47;;
25667;SDS011;18003;-33.830;151.202;2023-05-07T06:13:40;1.50;;;1.40;;
25667;SDS011;18003;-33.830;151.202;2023-05-07T06:16:10;1.77;;;1.67;;
25667;SDS011;18003;-33.830;151.202;2023-05-07T06:18:40;2.15;;;2.00;;
25667;SDS011;18003;-33.830;151.202;2023-05-07T06:21:10;1.75;;;1.65;;
25667;SDS011;18003;-33.830;151.202;2023-05-07T06:23:40;2.10;;;2.00;;
25667;SDS011;18003;-33.830;151.202;2023-05-07T06:26:10;3.27;;;1.70;;
25667;SDS011;18003;-33.830;151.202;2023-05-07T06:28:40;2.20;;;2.02;;
25667;SDS011;18003;-33.830;151.202;2023-05-07T06:31:16;2.10;;;2.00;;
25667;SDS011;18003;-33.830;151.202;2023-05-07T06:33:50;2.00;;;1.90;;
25667;SDS011;18003;-33.830;151.202;2023-05-07T06:36:20;2.08;;;1.98;;
25667;SDS011;18003;-33.830;151.202;2023-05-07T06:38:49;2.12;;;1.92;;
25667;SDS011;18003;-33.830;151.202;2023-05-07T06:41:19;1.80;;;1.70;;
25667;SDS011;18003;-33.830;151.202;2023-05-07T06:43:49;1.70;;;1.60;;
25667;SDS011;18003;-33.830;151.202;2023-05-07T06:46:19;1.90;;;1.80;;
25667;SDS011;18003;-33.830;151.202;2023-05-07T06:48:49;1.92;;;1.82;;
25667;SDS011;18003;-33.830;151.202;2023-05-07T06:51:19;1.70;;;1.60;;
25667;SDS011;18003;-33.830;151.202;2023-05-07T06:53:50;1.70;;;1.60;;
25667;SDS011;18003;-33.830;151.202;2023-05-07T06:56:20;1.55;;;1.47;;
25667;SDS011;18003;-33.830;151.202;2023-05-07T06:58:50;2.17;;;1.70;;
25667;SDS011;18003;-33.830;151.202;2023-05-07T07:01:20;1.30;;;1.30;;
25667;SDS011;18003;-33.830;151.202;2023-05-07T07:03:50;1.42;;;1.40;;
25667;SDS011;18003;-33.830;151.202;2023-05-07T07:06:20;1.87;;;1.40;;
25667;SDS011;18003;-33.830;151.202;2023-05-07T07:08:50;3.60;;;1.40;;
25667;SDS011;18003;-33.830;151.202;2023-05-07T07:11:20;1.50;;;1.40;;
25667;SDS011;18003;-33.830;151.202;2023-05-07T07:13:50;1.22;;;1.22;;
25667;SDS011;18003;-33.830;151.202;2023-05-07T07:16:21;1.40;;;1.30;;
25667;SDS011;18003;-33.830;151.202;2023-05-07T07:18:51;1.10;;;1.10;;
25667;SDS011;18003;-33.830;151.202;2023-05-07T07:21:21;1.20;;;1.20;;
25667;SDS011;18003;-33.830;151.202;2023-05-07T07:23:52;1.20;;;1.20;;
25667;SDS011;18003;-33.830;151.202;2023-05-07T07:26:21;1.52;;;1.42;;
25667;SDS011;18003;-33.830;151.202;2023-05-07T07:28:51;1.40;;;1.30;;
25667;SDS011;18003;-33.830;151.202;2023-05-07T07:31:22;1.22;;;1.12;;
25667;SDS011;18003;-33.830;151.202;2023-05-07T07:33:51;1.37;;;1.30;;
25667;SDS011;18003;-33.830;151.202;2023-05-07T07:36:30;5.40;;;1.90;;
25667;SDS011;18003;-33.830;151.202;2023-05-07T07:38:53;2.83;;;1.50;;
25667;SDS011;18003;-33.830;151.202;2023-05-07T07:41:23;3.90;;;1.47;;
25667;SDS011;18003;-33.830;151.202;2023-05-07T07:43:54;2.25;;;1.80;;
25667;SDS011;18003;-33.830;151.202;2023-05-07T07:46:23;3.45;;;1.50;;
25667;SDS011;18003;-33.830;151.202;2023-05-07T07:48:53;1.30;;;1.30;;
25667;SDS011;18003;-33.830;151.202;2023-05-07T07:51:24;1.02;;;1.02;;
25667;SDS011;18003;-33.830;151.202;2023-05-07T07:53:54;1.20;;;1.20;;
25667;SDS011;18003;-33.830;151.202;2023-05-07T07:56:24;1.10;;;1.10;;
25667;SDS011;18003;-33.830;151.202;2023-05-07T07:58:54;1.20;;;1.20;;
25667;SDS011;18003;-33.830;151.202;2023-05-07T08:01:24;0.90;;;0.90;;
25667;SDS011;18003;-33.830;151.202;2023-05-07T08:03:53;0.82;;;0.82;;
25667;SDS011;18003;-33.830;151.202;2023-05-07T08:06:24;0.90;;;0.90;;
25667;SDS011;18003;-33.830;151.202;2023-05-07T08:08:54;1.07;;;1.07;;
25667;SDS011;18003;-33.830;151.202;2023-05-07T08:11:24;1.00;;;1.00;;
25667;SDS011;18003;-33.830;151.202;2023-05-07T08:13:54;1.20;;;1.20;;
25667;SDS011;18003;-33.830;151.202;2023-05-07T08:16:24;1.27;;;1.20;;
25667;SDS011;18003;-33.830;151.202;2023-05-07T08:18:55;1.30;;;1.20;;
25667;SDS011;18003;-33.830;151.202;2023-05-07T08:21:25;1.40;;;1.30;;
25667;SDS011;18003;-33.830;151.202;2023-05-07T08:23:54;1.70;;;1.60;;
25667;SDS011;18003;-33.830;151.202;2023-05-07T08:26:24;2.35;;;2.15;;
25667;SDS011;18003;-33.830;151.202;2023-05-07T08:28:54;2.50;;;2.30;;
25667;SDS011;18003;-33.830;151.202;2023-05-07T08:31:24;2.60;;;2.12;;
25667;SDS011;18003;-33.830;151.202;2023-05-07T08:33:53;2.20;;;2.10;;
25667;SDS011;18003;-33.830;151.202;2023-05-07T08:36:23;1.80;;;1.70;;
25667;SDS011;18003;-33.830;151.202;2023-05-07T08:38:53;2.00;;;1.90;;
25667;SDS011;18003;-33.830;151.202;2023-05-07T08:41:23;2.10;;;1.90;;
25667;SDS011;18003;-33.830;151.202;2023-05-07T08:43:53;1.60;;;1.50;;
25667;SDS011;18003;-33.830;151.202;2023-05-07T08:48:53;1.70;;;1.60;;
25667;SDS011;18003;-33.830;151.202;2023-05-07T08:51:23;1.90;;;1.80;;
25667;SDS011;18003;-33.830;151.202;2023-05-07T08:53:53;2.00;;;1.85;;
25667;SDS011;18003;-33.830;151.202;2023-05-07T08:56:23;2.42;;;1.98;;
25667;SDS011;18003;-33.830;151.202;2023-05-07T08:58:53;2.50;;;2.30;;
25667;SDS011;18003;-33.830;151.202;2023-05-07T09:01:24;3.35;;;1.82;;
25667;SDS011;18003;-33.830;151.202;2023-05-07T09:03:57;3.08;;;1.80;;
25667;SDS011;18003;-33.830;151.202;2023-05-07T09:06:27;1.98;;;1.87;;
25667;SDS011;18003;-33.830;151.202;2023-05-07T09:08:57;1.70;;;1.60;;
25667;SDS011;18003;-33.830;151.202;2023-05-07T09:11:29;1.90;;;1.80;;
25667;SDS011;18003;-33.830;151.202;2023-05-07T09:13:59;1.60;;;1.50;;
25667;SDS011;18003;-33.830;151.202;2023-05-07T09:16:30;1.70;;;1.60;;
25667;SDS011;18003;-33.830;151.202;2023-05-07T09:19:00;1.50;;;1.40;;
25667;SDS011;18003;-33.830;151.202;2023-05-07T09:21:31;1.80;;;1.70;;
25667;SDS011;18003;-33.830;151.202;2023-05-07T09:24:01;1.50;;;1.40;;
25667;SDS011;18003;-33.830;151.202;2023-05-07T09:26:31;1.60;;;1.50;;
25667;SDS011;18003;-33.830;151.202;2023-05-07T09:29:01;1.62;;;1.52;;
25667;SDS011;18003;-33.830;151.202;2023-05-07T09:31:31;1.80;;;1.70;;
25667;SDS011;18003;-33.830;151.202;2023-05-07T09:34:02;2.77;;;2.08;;
25667;SDS011;18003;-33.830;151.202;2023-05-07T09:36:33;2.10;;;2.00;;
25667;SDS011;18003;-33.830;151.202;2023-05-07T09:39:03;2.00;;;1.90;;
25667;SDS011;18003;-33.830;151.202;2023-05-07T09:41:33;2.10;;;2.00;;
25667;SDS011;18003;-33.830;151.202;2023-05-07T09:44:05;2.70;;;2.50;;
25667;SDS011;18003;-33.830;151.202;2023-05-07T09:46:35;2.08;;;1.98;;
25667;SDS011;18003;-33.830;151.202;2023-05-07T09:49:07;2.15;;;1.70;;
25667;SDS011;18003;-33.830;151.202;2023-05-07T09:51:41;1.95;;;1.85;;
25667;SDS011;18003;-33.830;151.202;2023-05-07T09:54:13;2.87;;;2.10;;
25667;SDS011;18003;-33.830;151.202;2023-05-07T09:56:46;2.98;;;2.27;;
25667;SDS011;18003;-33.830;151.202;2023-05-07T09:59:17;2.22;;;2.12;;
25667;SDS011;18003;-33.830;151.202;2023-05-07T10:01:48;1.97;;;1.87;;
25667;SDS011;18003;-33.830;151.202;2023-05-07T10:04:19;1.80;;;1.70;;
25667;SDS011;18003;-33.830;151.202;2023-05-07T10:06:49;1.70;;;1.60;;
25667;SDS011;18003;-33.830;151.202;2023-05-07T10:09:20;1.62;;;1.52;;
25667;SDS011;18003;-33.830;151.202;2023-05-07T10:11:50;1.30;;;1.30;;
25667;SDS011;18003;-33.830;151.202;2023-05-07T10:14:21;1.47;;;1.37;;
25667;SDS011;18003;-33.830;151.202;2023-05-07T10:16:51;1.32;;;1.22;;
25667;SDS011;18003;-33.830;151.202;2023-05-07T10:19:22;1.30;;;1.30;;
25667;SDS011;18003;-33.830;151.202;2023-05-07T10:21:55;1.20;;;1.20;;
25667;SDS011;18003;-33.830;151.202;2023-05-07T10:24:33;1.42;;;1.30;;
25667;SDS011;18003;-33.830;151.202;2023-05-07T10:27:00;1.15;;;1.15;;
25667;SDS011;18003;-33.830;151.202;2023-05-07T10:33:03;1.47;;;1.47;;
25667;SDS011;18003;-33.830;151.202;2023-05-07T10:34:58;1.40;;;1.40;;
25667;SDS011;18003;-33.830;151.202;2023-05-07T10:39:58;1.67;;;1.57;;
25667;SDS011;18003;-33.830;151.202;2023-05-07T10:42:28;2.47;;;1.75;;
25667;SDS011;18003;-33.830;151.202;2023-05-07T10:44:58;1.82;;;1.72;;
25667;SDS011;18003;-33.830;151.202;2023-05-07T10:52:37;0.90;;;0.90;;
25667;SDS011;18003;-33.830;151.202;2023-05-07T10:57:47;1.00;;;1.00;;
25667;SDS011;18003;-33.830;151.202;2023-05-07T11:05:41;1.42;;;1.42;;
25667;SDS011;18003;-33.830;151.202;2023-05-07T11:08:06;1.30;;;1.20;;
25667;SDS011;18003;-33.830;151.202;2023-05-07T11:10:51;1.20;;;1.20;;
25667;SDS011;18003;-33.830;151.202;2023-05-07T11:13:41;1.37;;;1.30;;
25667;SDS011;18003;-33.830;151.202;2023-05-07T11:18:54;1.30;;;1.30;;
25667;SDS011;18003;-33.830;151.202;2023-05-07T11:21:37;1.70;;;1.70;;
25667;SDS011;18003;-33.830;151.202;2023-05-07T11:24:08;1.80;;;1.70;;
25667;SDS011;18003;-33.830;151.202;2023-05-07T11:26:45;1.60;;;1.60;;
25667;SDS011;18003;-33.830;151.202;2023-05-07T11:29:20;1.60;;;1.60;;
25667;SDS011;18003;-33.830;151.202;2023-05-07T11:31:50;1.50;;;1.50;;
25667;SDS011;18003;-33.830;151.202;2023-05-07T11:34:21;1.50;;;1.50;;
25667;SDS011;18003;-33.830;151.202;2023-05-07T11:36:52;1.42;;;1.42;;
25667;SDS011;18003;-33.830;151.202;2023-05-07T11:39:24;2.00;;;1.60;;
25667;SDS011;18003;-33.830;151.202;2023-05-07T11:42:04;1.70;;;1.60;;
25667;SDS011;18003;-33.830;151.202;2023-05-07T11:44:45;1.40;;;1.30;;
25667;SDS011;18003;-33.830;151.202;2023-05-07T11:47:18;2.25;;;1.47;;
25667;SDS011;18003;-33.830;151.202;2023-05-07T11:49:48;1.70;;;1.60;;
25667;SDS011;18003;-33.830;151.202;2023-05-07T11:52:20;1.47;;;1.47;;
25667;SDS011;18003;-33.830;151.202;2023-05-07T11:54:50;1.80;;;1.70;;
25667;SDS011;18003;-33.830;151.202;2023-05-07T11:57:25;1.65;;;1.65;;
25667;SDS011;18003;-33.830;151.202;2023-05-07T11:59:58;1.45;;;1.45;;
25667;SDS011;18003;-33.830;151.202;2023-05-07T12:02:31;1.20;;;1.20;;
25667;SDS011;18003;-33.830;151.202;2023-05-07T12:05:01;1.60;;;1.50;;
25667;SDS011;18003;-33.830;151.202;2023-05-07T12:07:32;1.67;;;1.40;;
25667;SDS011;18003;-33.830;151.202;2023-05-07T12:10:05;1.42;;;1.35;;
25667;SDS011;18003;-33.830;151.202;2023-05-07T12:12:39;1.50;;;1.40;;
25667;SDS011;18003;-33.830;151.202;2023-05-07T12:15:09;4.03;;;1.40;;
25667;SDS011;18003;-33.830;151.202;2023-05-07T12:17:40;2.43;;;1.30;;
25667;SDS011;18003;-33.830;151.202;2023-05-07T12:20:11;1.42;;;1.32;;
25667;SDS011;18003;-33.830;151.202;2023-05-07T12:22:41;1.10;;;1.10;;
25667;SDS011;18003;-33.830;151.202;2023-05-07T12:25:11;1.50;;;1.40;;
25667;SDS011;18003;-33.830;151.202;2023-05-07T12:27:44;3.02;;;1.62;;
25667;SDS011;18003;-33.830;151.202;2023-05-07T12:32:44;2.08;;;1.70;;
25667;SDS011;18003;-33.830;151.202;2023-05-07T12:35:14;2.47;;;1.50;;
25667;SDS011;18003;-33.830;151.202;2023-05-07T12:37:45;2.07;;;1.57;;
25667;SDS011;18003;-33.830;151.202;2023-05-07T12:40:16;1.72;;;1.62;;
25667;SDS011;18003;-33.830;151.202;2023-05-07T12:42:47;2.52;;;1.65;;
25667;SDS011;18003;-33.830;151.202;2023-05-07T12:45:18;2.02;;;1.60;;
25667;SDS011;18003;-33.830;151.202;2023-05-07T12:47:48;1.90;;;1.75;;
25667;SDS011;18003;-33.830;151.202;2023-05-07T12:50:18;2.62;;;1.90;;
25667;SDS011;18003;-33.830;151.202;2023-05-07T12:52:48;1.85;;;1.70;;
25667;SDS011;18003;-33.830;151.202;2023-05-07T12:55:18;2.67;;;1.70;;
25667;SDS011;18003;-33.830;151.202;2023-05-07T12:57:49;3.72;;;2.10;;
25667;SDS011;18003;-33.830;151.202;2023-05-07T13:00:33;2.02;;;1.70;;
25667;SDS011;18003;-33.830;151.202;2023-05-07T13:03:06;2.00;;;1.80;;
25667;SDS011;18003;-33.830;151.202;2023-05-07T13:05:36;2.20;;;2.10;;
25667;SDS011;18003;-33.830;151.202;2023-05-07T13:08:06;2.22;;;1.90;;
25667;SDS011;18003;-33.830;151.202;2023-05-07T13:10:36;1.80;;;1.70;;
25667;SDS011;18003;-33.830;151.202;2023-05-07T13:13:06;1.85;;;1.70;;
25667;SDS011;18003;-33.830;151.202;2023-05-07T13:15:36;2.25;;;1.75;;
25667;SDS011;18003;-33.830;151.202;2023-05-07T13:18:06;2.35;;;1.70;;
25667;SDS011;18003;-33.830;151.202;2023-05-07T13:20:37;1.80;;;1.70;;
25667;SDS011;18003;-33.830;151.202;2023-05-07T13:23:07;1.70;;;1.60;;
25667;SDS011;18003;-33.830;151.202;2023-05-07T13:25:37;1.80;;;1.70;;
25667;SDS011;18003;-33.830;151.202;2023-05-07T13:28:07;1.75;;;1.65;;
25667;SDS011;18003;-33.830;151.202;2023-05-07T13:30:37;1.70;;;1.60;;
25667;SDS011;18003;-33.830;151.202;2023-05-07T13:33:07;2.33;;;1.70;;
25667;SDS011;18003;-33.830;151.202;2023-05-07T13:35:37;1.60;;;1.50;;
25667;SDS011;18003;-33.830;151.202;2023-05-07T13:38:07;1.50;;;1.40;;
25667;SDS011;18003;-33.830;151.202;2023-05-07T13:40:37;1.85;;;1.35;;
25667;SDS011;18003;-33.830;151.202;2023-05-07T13:43:07;1.30;;;1.30;;
25667;SDS011;18003;-33.830;151.202;2023-05-07T13:45:36;1.70;;;1.60;;
25667;SDS011;18003;-33.830;151.202;2023-05-07T13:48:06;1.90;;;1.80;;
25667;SDS011;18003;-33.830;151.202;2023-05-07T13:50:36;1.80;;;1.70;;
25667;SDS011;18003;-33.830;151.202;2023-05-07T13:53:06;1.80;;;1.70;;
25667;SDS011;18003;-33.830;151.202;2023-05-07T13:55:36;1.72;;;1.62;;
25667;SDS011;18003;-33.830;151.202;2023-05-07T13:58:06;1.60;;;1.60;;
25667;SDS011;18003;-33.830;151.202;2023-05-07T14:00:36;1.80;;;1.70;;
25667;SDS011;18003;-33.830;151.202;2023-05-07T14:03:06;1.70;;;1.60;;
25667;SDS011;18003;-33.830;151.202;2023-05-07T14:05:36;1.70;;;1.60;;
25667;SDS011;18003;-33.830;151.202;2023-05-07T14:08:07;1.80;;;1.70;;
25667;SDS011;18003;-33.830;151.202;2023-05-07T14:10:37;1.50;;;1.50;;
25667;SDS011;18003;-33.830;151.202;2023-05-07T14:13:07;1.72;;;1.62;;
25667;SDS011;18003;-33.830;151.202;2023-05-07T14:15:37;1.80;;;1.70;;
25667;SDS011;18003;-33.830;151.202;2023-05-07T14:18:08;1.60;;;1.50;;
25667;SDS011;18003;-33.830;151.202;2023-05-07T14:20:38;1.90;;;1.80;;
25667;SDS011;18003;-33.830;151.202;2023-05-07T14:23:09;2.00;;;1.90;;
25667;SDS011;18003;-33.830;151.202;2023-05-07T14:25:39;1.80;;;1.70;;
25667;SDS011;18003;-33.830;151.202;2023-05-07T14:28:10;2.00;;;1.90;;
25667;SDS011;18003;-33.830;151.202;2023-05-07T14:30:40;1.90;;;1.80;;
25667;SDS011;18003;-33.830;151.202;2023-05-07T14:33:10;1.70;;;1.60;;
25667;SDS011;18003;-33.830;151.202;2023-05-07T14:35:40;1.80;;;1.70;;
25667;SDS011;18003;-33.830;151.202;2023-05-07T14:38:11;1.80;;;1.80;;
25667;SDS011;18003;-33.830;151.202;2023-05-07T14:40:42;1.80;;;1.70;;
25667;SDS011;18003;-33.830;151.202;2023-05-07T14:43:13;1.80;;;1.70;;
25667;SDS011;18003;-33.830;151.202;2023-05-07T14:45:43;1.77;;;1.60;;
25667;SDS011;18003;-33.830;151.202;2023-05-07T14:48:13;1.57;;;1.50;;
25667;SDS011;18003;-33.830;151.202;2023-05-07T14:50:44;1.67;;;1.57;;
25667;SDS011;18003;-33.830;151.202;2023-05-07T14:53:17;1.50;;;1.50;;
25667;SDS011;18003;-33.830;151.202;2023-05-07T14:55:48;1.60;;;1.50;;
25667;SDS011;18003;-33.830;151.202;2023-05-07T14:58:18;1.60;;;1.52;;
25667;SDS011;18003;-33.830;151.202;2023-05-07T15:00:48;1.60;;;1.50;;
25667;SDS011;18003;-33.830;151.202;2023-05-07T15:03:18;1.40;;;1.40;;
25667;SDS011;18003;-33.830;151.202;2023-05-07T15:05:48;1.80;;;1.60;;
25667;SDS011;18003;-33.830;151.202;2023-05-07T15:08:18;1.65;;;1.55;;
25667;SDS011;18003;-33.830;151.202;2023-05-07T15:10:48;1.60;;;1.50;;
25667;SDS011;18003;-33.830;151.202;2023-05-07T15:13:18;1.50;;;1.40;;
25667;SDS011;18003;-33.830;151.202;2023-05-07T15:15:48;1.55;;;1.30;;
25667;SDS011;18003;-33.830;151.202;2023-05-07T15:18:18;1.55;;;1.45;;
25667;SDS011;18003;-33.830;151.202;2023-05-07T15:20:48;1.98;;;1.50;;
25667;SDS011;18003;-33.830;151.202;2023-05-07T15:23:18;1.57;;;1.47;;
25667;SDS011;18003;-33.830;151.202;2023-05-07T15:25:48;1.80;;;1.60;;
25667;SDS011;18003;-33.830;151.202;2023-05-07T15:28:18;1.67;;;1.40;;